Airfield :
LOGIN :

Register | Disclaimer

   EN    FR    IT 

 










Legend :    VFR   Marginal VFR   IFR   Intensive IFR   Very Intensive IFR
Visi :
Ceiling :
>= 8 km
>= 3000ft
5 to 8 km
1000 to 3000 ft
1500m to 5 km
500 to 1000 ft
800 to 1500m
200 to 500 ft
< 800m
< 200 ft
Symbols :   Thunderstorms  Fog  Heavy snow  Heavy precipitations  Wind > 20 kt
SIGMETs :     Misc.  Thunderstorms  Icing  Turbulence  Mountain Waves  Volcanic Ashes






- Airport Elevation : 299 ft
- IATA code : EDM


LFRI - La Roche Sur Yon - Les Ajoncs

CURRENT METAR :
  • 030830Z AUTO 35007KT 9999 FEW021 BKN031 17/11 Q1022 NOSIG

EXPIRED METARs :
  • 030800Z AUTO 36007KT 9999 FEW015 BKN032 16/11 Q1022 NOSIG
  • 030730Z AUTO 02007KT 330V040 9999 BKN029 16/13 Q1023 NOSIG
  • 030700Z AUTO 03006KT 9999 OVC027 15/12 Q1022 NOSIG
  • 030630Z AUTO 01008KT 9999 SCT026 15/12 Q1022 NOSIG
  • 030600Z AUTO 01006KT CAVOK 14/12 Q1022 NOSIG

TAF TAF LFRI
Valid from the 03 at 06:00 until the 04 at 06:00 UTC


030500Z 0306/0406 01004KT CAVOK
BECMG 0316/0318 31010KT
BECMG 0322/0324 01010KT



MET'MAP, your aeronautical weather chart ! - Copyright ORBIFLY December 2007 - Disclaimer

ORBIFLY MET'MAP TEAM :

Programming & Development : Alexandra Zaïnal
Original concept : Baudouin d'Aumeries
Technical & hardware support : Manuel Goepfert
Assistance : Marc-Olivier Méhu




SOURCES & CREDITS :

   NOAA